sensor_id;sensor_type;location;lat;lon;timestamp;temperature;humidity
67249;SHT31;63247;54.300;18.592;2023-03-08T00:02:07;-1.03;85.84
67249;SHT31;63247;54.300;18.592;2023-03-08T00:04:32;-1.11;86.22
67249;SHT31;63247;54.300;18.592;2023-03-08T00:06:58;-1.15;86.38
67249;SHT31;63247;54.300;18.592;2023-03-08T00:09:24;-1.16;86.20
67249;SHT31;63247;54.300;18.592;2023-03-08T00:11:49;-1.15;85.80
67249;SHT31;63247;54.300;18.592;2023-03-08T00:14:15;-1.11;85.44
67249;SHT31;63247;54.300;18.592;2023-03-08T00:16:42;-1.05;85.04
67249;SHT31;63247;54.300;18.592;2023-03-08T00:19:07;-1.04;85.00
67249;SHT31;63247;54.300;18.592;2023-03-08T00:21:32;-1.07;85.00
67249;SHT31;63247;54.300;18.592;2023-03-08T00:23:58;-1.00;84.16
67249;SHT31;63247;54.300;18.592;2023-03-08T00:26:23;-1.05;84.66
67249;SHT31;63247;54.300;18.592;2023-03-08T00:28:49;-0.91;83.74
67249;SHT31;63247;54.300;18.592;2023-03-08T00:31:15;-0.97;84.29
67249;SHT31;63247;54.300;18.592;2023-03-08T00:33:40;-1.03;84.42
67249;SHT31;63247;54.300;18.592;2023-03-08T00:36:17;-1.01;84.50
67249;SHT31;63247;54.300;18.592;2023-03-08T00:38:43;-1.04;84.87
67249;SHT31;63247;54.300;18.592;2023-03-08T00:41:09;-1.12;85.06
67249;SHT31;63247;54.300;18.592;2023-03-08T00:43:35;-1.19;85.52
67249;SHT31;63247;54.300;18.592;2023-03-08T00:46:00;-1.21;85.50
67249;SHT31;63247;54.300;18.592;2023-03-08T00:48:26;-1.09;85.08
67249;SHT31;63247;54.300;18.592;2023-03-08T00:50:51;-1.12;84.93
67249;SHT31;63247;54.300;18.592;2023-03-08T00:53:17;-1.14;85.09
67249;SHT31;63247;54.300;18.592;2023-03-08T00:55:51;-1.14;84.95
67249;SHT31;63247;54.300;18.592;2023-03-08T00:58:17;-1.24;84.90
67249;SHT31;63247;54.300;18.592;2023-03-08T01:00:43;-1.25;84.99
67249;SHT31;63247;54.300;18.592;2023-03-08T01:03:09;-1.27;84.77
67249;SHT31;63247;54.300;18.592;2023-03-08T01:05:39;-1.28;84.56
67249;SHT31;63247;54.300;18.592;2023-03-08T01:08:05;-1.15;83.69
67249;SHT31;63247;54.300;18.592;2023-03-08T01:10:30;-1.22;83.72
67249;SHT31;63247;54.300;18.592;2023-03-08T01:12:56;-1.16;83.20
67249;SHT31;63247;54.300;18.592;2023-03-08T01:15:21;-1.25;83.43
67249;SHT31;63247;54.300;18.592;2023-03-08T01:17:47;-1.28;83.36
67249;SHT31;63247;54.300;18.592;2023-03-08T01:20:13;-1.21;82.92
67249;SHT31;63247;54.300;18.592;2023-03-08T01:22:38;-1.22;82.79
67249;SHT31;63247;54.300;18.592;2023-03-08T01:25:04;-1.27;82.28
67249;SHT31;63247;54.300;18.592;2023-03-08T01:27:30;-1.22;81.89
67249;SHT31;63247;54.300;18.592;2023-03-08T01:29:56;-1.12;81.14
67249;SHT31;63247;54.300;18.592;2023-03-08T01:32:21;-1.22;81.36
67249;SHT31;63247;54.300;18.592;2023-03-08T01:34:47;-1.22;81.12
67249;SHT31;63247;54.300;18.592;2023-03-08T01:37:12;-1.34;81.65
67249;SHT31;63247;54.300;18.592;2023-03-08T01:39:38;-1.36;81.50
67249;SHT31;63247;54.300;18.592;2023-03-08T01:42:04;-1.38;81.67
67249;SHT31;63247;54.300;18.592;2023-03-08T01:44:58;-1.32;81.16
67249;SHT31;63247;54.300;18.592;2023-03-08T01:47:26;-1.39;81.41
67249;SHT31;63247;54.300;18.592;2023-03-08T01:49:54;-1.38;81.20
67249;SHT31;63247;54.300;18.592;2023-03-08T01:52:28;-1.34;80.99
67249;SHT31;63247;54.300;18.592;2023-03-08T01:54:57;-1.32;80.78
67249;SHT31;63247;54.300;18.592;2023-03-08T01:57:27;-1.42;81.05
67249;SHT31;63247;54.300;18.592;2023-03-08T01:59:55;-1.38;80.68
67249;SHT31;63247;54.300;18.592;2023-03-08T02:02:25;-1.45;81.07
67249;SHT31;63247;54.300;18.592;2023-03-08T02:04:52;-1.45;80.84
67249;SHT31;63247;54.300;18.592;2023-03-08T02:07:18;-1.51;80.61
67249;SHT31;63247;54.300;18.592;2023-03-08T02:09:44;-1.48;80.44
67249;SHT31;63247;54.300;18.592;2023-03-08T02:12:12;-1.38;79.34
67249;SHT31;63247;54.300;18.592;2023-03-08T02:14:40;-1.51;80.13
67249;SHT31;63247;54.300;18.592;2023-03-08T02:17:06;-1.48;79.71
67249;SHT31;63247;54.300;18.592;2023-03-08T02:19:44;-1.43;79.02
67249;SHT31;63247;54.300;18.592;2023-03-08T02:22:13;-1.38;78.52
67249;SHT31;63247;54.300;18.592;2023-03-08T02:24:39;-1.35;78.21
67249;SHT31;63247;54.300;18.592;2023-03-08T02:27:25;-1.39;78.08
67249;SHT31;63247;54.300;18.592;2023-03-08T02:29:51;-1.49;78.50
67249;SHT31;63247;54.300;18.592;2023-03-08T02:32:17;-1.58;78.71
67249;SHT31;63247;54.300;18.592;2023-03-08T02:34:43;-1.53;78.48
67249;SHT31;63247;54.300;18.592;2023-03-08T02:37:08;-1.45;77.99
67249;SHT31;63247;54.300;18.592;2023-03-08T02:39:34;-1.39;77.84
67249;SHT31;63247;54.300;18.592;2023-03-08T02:41:59;-1.27;77.47
67249;SHT31;63247;54.300;18.592;2023-03-08T02:44:24;-1.16;77.66
67249;SHT31;63247;54.300;18.592;2023-03-08T02:46:51;-1.19;77.91
67249;SHT31;63247;54.300;18.592;2023-03-08T02:49:16;-1.15;77.29
67249;SHT31;63247;54.300;18.592;2023-03-08T02:51:42;-1.15;77.17
67249;SHT31;63247;54.300;18.592;2023-03-08T02:54:07;-1.24;77.51
67249;SHT31;63247;54.300;18.592;2023-03-08T02:56:33;-1.24;77.29
67249;SHT31;63247;54.300;18.592;2023-03-08T02:58:58;-1.25;77.27
67249;SHT31;63247;54.300;18.592;2023-03-08T03:01:24;-1.18;77.11
67249;SHT31;63247;54.300;18.592;2023-03-08T03:03:52;-1.18;77.06
67249;SHT31;63247;54.300;18.592;2023-03-08T03:06:19;-1.21;77.06
67249;SHT31;63247;54.300;18.592;2023-03-08T03:08:45;-1.28;77.41
67249;SHT31;63247;54.300;18.592;2023-03-08T03:11:17;-1.39;77.85
67249;SHT31;63247;54.300;18.592;2023-03-08T03:13:43;-1.34;77.78
67249;SHT31;63247;54.300;18.592;2023-03-08T03:16:13;-1.27;77.67
67249;SHT31;63247;54.300;18.592;2023-03-08T03:18:39;-1.27;77.98
67249;SHT31;63247;54.300;18.592;2023-03-08T03:21:08;-1.32;77.94
67249;SHT31;63247;54.300;18.592;2023-03-08T03:23:34;-1.41;78.17
67249;SHT31;63247;54.300;18.592;2023-03-08T03:26:17;-1.35;78.54
67249;SHT31;63247;54.300;18.592;2023-03-08T03:28:43;-1.32;78.73
67249;SHT31;63247;54.300;18.592;2023-03-08T03:31:11;-1.38;79.55
67249;SHT31;63247;54.300;18.592;2023-03-08T03:33:37;-1.46;79.38
67249;SHT31;63247;54.300;18.592;2023-03-08T03:36:04;-1.41;78.55
67249;SHT31;63247;54.300;18.592;2023-03-08T03:38:30;-1.39;78.40
67249;SHT31;63247;54.300;18.592;2023-03-08T03:41:03;-1.34;78.43
67249;SHT31;63247;54.300;18.592;2023-03-08T03:43:29;-1.48;79.17
67249;SHT31;63247;54.300;18.592;2023-03-08T03:46:00;-1.42;79.19
67249;SHT31;63247;54.300;18.592;2023-03-08T03:48:25;-1.38;79.55
67249;SHT31;63247;54.300;18.592;2023-03-08T03:50:56;-1.31;79.08
67249;SHT31;63247;54.300;18.592;2023-03-08T03:53:22;-1.32;78.65
67249;SHT31;63247;54.300;18.592;2023-03-08T03:55:48;-1.39;78.60
67249;SHT31;63247;54.300;18.592;2023-03-08T03:58:14;-1.38;78.52
67249;SHT31;63247;54.300;18.592;2023-03-08T04:00:39;-1.51;78.99
67249;SHT31;63247;54.300;18.592;2023-03-08T04:03:05;-1.46;78.77
67249;SHT31;63247;54.300;18.592;2023-03-08T04:05:31;-1.45;78.19
67249;SHT31;63247;54.300;18.592;2023-03-08T04:07:56;-1.46;78.24
67249;SHT31;63247;54.300;18.592;2023-03-08T04:10:22;-1.36;77.63
67249;SHT31;63247;54.300;18.592;2023-03-08T04:12:48;-1.28;77.73
67249;SHT31;63247;54.300;18.592;2023-03-08T04:15:14;-1.21;77.30
67249;SHT31;63247;54.300;18.592;2023-03-08T04:17:39;-1.16;76.81
67249;SHT31;63247;54.300;18.592;2023-03-08T04:20:05;-1.24;76.71
67249;SHT31;63247;54.300;18.592;2023-03-08T04:22:31;-1.28;76.81
67249;SHT31;63247;54.300;18.592;2023-03-08T04:24:57;-1.30;77.17
67249;SHT31;63247;54.300;18.592;2023-03-08T04:27:22;-1.34;77.45
67249;SHT31;63247;54.300;18.592;2023-03-08T04:29:48;-1.42;77.60
67249;SHT31;63247;54.300;18.592;2023-03-08T04:32:13;-1.48;77.75
67249;SHT31;63247;54.300;18.592;2023-03-08T04:34:38;-1.46;77.60
67249;SHT31;63247;54.300;18.592;2023-03-08T04:37:04;-1.49;77.71
67249;SHT31;63247;54.300;18.592;2023-03-08T04:39:29;-1.48;77.57
67249;SHT31;63247;54.300;18.592;2023-03-08T04:41:55;-1.51;77.34
67249;SHT31;63247;54.300;18.592;2023-03-08T04:44:20;-1.45;77.05
67249;SHT31;63247;54.300;18.592;2023-03-08T04:46:46;-1.46;76.91
67249;SHT31;63247;54.300;18.592;2023-03-08T04:49:11;-1.56;77.32
67249;SHT31;63247;54.300;18.592;2023-03-08T04:51:37;-1.52;77.05
67249;SHT31;63247;54.300;18.592;2023-03-08T04:54:02;-1.55;77.03
67249;SHT31;63247;54.300;18.592;2023-03-08T04:56:29;-1.60;77.30
67249;SHT31;63247;54.300;18.592;2023-03-08T04:58:54;-1.62;77.48
67249;SHT31;63247;54.300;18.592;2023-03-08T05:01:21;-1.59;77.47
67249;SHT31;63247;54.300;18.592;2023-03-08T05:03:47;-1.43;76.94
67249;SHT31;63247;54.300;18.592;2023-03-08T05:06:17;-1.38;77.03
67249;SHT31;63247;54.300;18.592;2023-03-08T05:08:43;-1.32;77.58
67249;SHT31;63247;54.300;18.592;2023-03-08T05:11:09;-1.28;78.18
67249;SHT31;63247;54.300;18.592;2023-03-08T05:13:36;-1.24;78.76
67249;SHT31;63247;54.300;18.592;2023-03-08T05:16:04;-1.31;79.68
67249;SHT31;63247;54.300;18.592;2023-03-08T05:18:30;-1.30;79.77
67249;SHT31;63247;54.300;18.592;2023-03-08T05:20:57;-1.25;79.11
67249;SHT31;63247;54.300;18.592;2023-03-08T05:23:24;-1.27;80.06
67249;SHT31;63247;54.300;18.592;2023-03-08T05:25:54;-1.39;82.58
67249;SHT31;63247;54.300;18.592;2023-03-08T05:28:21;-1.35;81.71
67249;SHT31;63247;54.300;18.592;2023-03-08T05:30:46;-1.35;82.93
67249;SHT31;63247;54.300;18.592;2023-03-08T05:33:13;-1.60;86.08
67249;SHT31;63247;54.300;18.592;2023-03-08T05:35:38;-1.74;87.94
67249;SHT31;63247;54.300;18.592;2023-03-08T05:38:04;-1.74;87.28
67249;SHT31;63247;54.300;18.592;2023-03-08T05:40:29;-1.69;86.20
67249;SHT31;63247;54.300;18.592;2023-03-08T05:42:55;-1.03;82.30
67249;SHT31;63247;54.300;18.592;2023-03-08T05:45:20;-0.50;79.31
67249;SHT31;63247;54.300;18.592;2023-03-08T05:47:46;-0.77;80.63
67249;SHT31;63247;54.300;18.592;2023-03-08T05:50:12;-1.05;83.51
67249;SHT31;63247;54.300;18.592;2023-03-08T05:52:37;-1.46;87.53
67249;SHT31;63247;54.300;18.592;2023-03-08T05:55:04;-1.84;93.00
67249;SHT31;63247;54.300;18.592;2023-03-08T05:57:29;-1.86;92.43
67249;SHT31;63247;54.300;18.592;2023-03-08T05:59:55;-0.93;89.40
67249;SHT31;63247;54.300;18.592;2023-03-08T06:02:20;-0.28;86.02
67249;SHT31;63247;54.300;18.592;2023-03-08T06:04:46;0.10;83.41
67249;SHT31;63247;54.300;18.592;2023-03-08T06:07:11;0.05;83.78
67249;SHT31;63247;54.300;18.592;2023-03-08T06:09:37;0.91;81.27
67249;SHT31;63247;54.300;18.592;2023-03-08T06:12:02;1.09;79.34
67249;SHT31;63247;54.300;18.592;2023-03-08T06:14:28;1.38;77.03
67249;SHT31;63247;54.300;18.592;2023-03-08T06:16:53;2.11;75.59
67249;SHT31;63247;54.300;18.592;2023-03-08T06:19:19;2.52;74.29
67249;SHT31;63247;54.300;18.592;2023-03-08T06:21:44;2.40;72.86
67249;SHT31;63247;54.300;18.592;2023-03-08T06:24:10;2.70;70.43
67249;SHT31;63247;54.300;18.592;2023-03-08T06:26:35;3.04;69.77
67249;SHT31;63247;54.300;18.592;2023-03-08T06:29:01;3.25;68.60
67249;SHT31;63247;54.300;18.592;2023-03-08T06:31:26;2.72;68.94
67249;SHT31;63247;54.300;18.592;2023-03-08T06:33:51;3.07;68.18
67249;SHT31;63247;54.300;18.592;2023-03-08T06:36:18;2.61;68.46
67249;SHT31;63247;54.300;18.592;2023-03-08T06:38:45;3.09;68.22
67249;SHT31;63247;54.300;18.592;2023-03-08T06:41:12;2.40;68.30
67249;SHT31;63247;54.300;18.592;2023-03-08T06:43:38;2.21;73.56
67249;SHT31;63247;54.300;18.592;2023-03-08T06:46:09;2.58;74.08
67249;SHT31;63247;54.300;18.592;2023-03-08T06:48:34;1.87;75.66
67249;SHT31;63247;54.300;18.592;2023-03-08T06:51:00;3.64;72.82
67249;SHT31;63247;54.300;18.592;2023-03-08T06:53:26;3.24;72.32
67249;SHT31;63247;54.300;18.592;2023-03-08T06:55:51;3.69;72.07
67249;SHT31;63247;54.300;18.592;2023-03-08T06:58:17;2.57;74.73
67249;SHT31;63247;54.300;18.592;2023-03-08T07:00:42;3.79;71.18
67249;SHT31;63247;54.300;18.592;2023-03-08T07:03:10;4.24;69.16
67249;SHT31;63247;54.300;18.592;2023-03-08T07:05:36;4.59;67.81
67249;SHT31;63247;54.300;18.592;2023-03-08T07:08:01;4.31;68.00
67249;SHT31;63247;54.300;18.592;2023-03-08T07:10:27;5.24;66.75
67249;SHT31;63247;54.300;18.592;2023-03-08T07:12:52;5.18;66.14
67249;SHT31;63247;54.300;18.592;2023-03-08T07:15:20;5.83;64.72
67249;SHT31;63247;54.300;18.592;2023-03-08T07:17:47;6.09;63.65
67249;SHT31;63247;54.300;18.592;2023-03-08T07:20:14;6.21;62.64
67249;SHT31;63247;54.300;18.592;2023-03-08T07:22:40;6.67;61.02
67249;SHT31;63247;54.300;18.592;2023-03-08T07:25:09;5.90;61.89
67249;SHT31;63247;54.300;18.592;2023-03-08T07:27:34;5.68;61.61
67249;SHT31;63247;54.300;18.592;2023-03-08T07:30:00;6.17;61.23
67249;SHT31;63247;54.300;18.592;2023-03-08T07:32:25;5.85;61.65
67249;SHT31;63247;54.300;18.592;2023-03-08T07:34:54;6.18;59.99
67249;SHT31;63247;54.300;18.592;2023-03-08T07:37:19;3.14;67.93
67249;SHT31;63247;54.300;18.592;2023-03-08T07:39:45;1.66;76.62
67249;SHT31;63247;54.300;18.592;2023-03-08T07:42:10;3.67;71.92
67249;SHT31;63247;54.300;18.592;2023-03-08T07:44:36;4.02;69.79
67249;SHT31;63247;54.300;18.592;2023-03-08T07:47:02;2.60;74.23
67249;SHT31;63247;54.300;18.592;2023-03-08T07:49:28;1.40;82.61
67249;SHT31;63247;54.300;18.592;2023-03-08T07:51:53;1.13;84.64
67249;SHT31;63247;54.300;18.592;2023-03-08T07:54:20;2.30;80.15
67249;SHT31;63247;54.300;18.592;2023-03-08T07:56:45;5.10;72.95
67249;SHT31;63247;54.300;18.592;2023-03-08T07:59:11;5.17;70.80
67249;SHT31;63247;54.300;18.592;2023-03-08T08:01:37;5.79;67.33
67249;SHT31;63247;54.300;18.592;2023-03-08T08:04:02;5.00;67.59
67249;SHT31;63247;54.300;18.592;2023-03-08T08:06:28;5.82;67.61
67249;SHT31;63247;54.300;18.592;2023-03-08T08:08:54;5.41;66.13
67249;SHT31;63247;54.300;18.592;2023-03-08T08:11:20;5.73;65.78
67249;SHT31;63247;54.300;18.592;2023-03-08T08:13:47;4.45;67.55
67249;SHT31;63247;54.300;18.592;2023-03-08T08:16:13;3.22;70.13
67249;SHT31;63247;54.300;18.592;2023-03-08T08:18:39;3.87;69.45
67249;SHT31;63247;54.300;18.592;2023-03-08T08:21:07;3.59;70.29
67249;SHT31;63247;54.300;18.592;2023-03-08T08:23:34;6.71;62.84
67249;SHT31;63247;54.300;18.592;2023-03-08T08:26:03;6.21;62.82
67249;SHT31;63247;54.300;18.592;2023-03-08T08:28:29;7.35;59.57
67249;SHT31;63247;54.300;18.592;2023-03-08T08:33:21;5.18;64.62
67249;SHT31;63247;54.300;18.592;2023-03-08T08:35:47;6.21;62.61
67249;SHT31;63247;54.300;18.592;2023-03-08T08:38:12;4.41;65.47
67249;SHT31;63247;54.300;18.592;2023-03-08T08:40:38;5.48;65.55
67249;SHT31;63247;54.300;18.592;2023-03-08T08:43:03;5.62;62.33
67249;SHT31;63247;54.300;18.592;2023-03-08T08:45:29;6.61;61.90
67249;SHT31;63247;54.300;18.592;2023-03-08T08:47:54;6.28;59.75
67249;SHT31;63247;54.300;18.592;2023-03-08T08:50:19;6.41;58.79
67249;SHT31;63247;54.300;18.592;2023-03-08T08:52:45;5.26;58.36
67249;SHT31;63247;54.300;18.592;2023-03-08T08:55:10;4.05;60.66
67249;SHT31;63247;54.300;18.592;2023-03-08T08:57:36;6.72;55.45
67249;SHT31;63247;54.300;18.592;2023-03-08T09:00:02;6.97;52.08
67249;SHT31;63247;54.300;18.592;2023-03-08T09:02:30;7.23;49.63
67249;SHT31;63247;54.300;18.592;2023-03-08T09:04:56;7.33;49.40
67249;SHT31;63247;54.300;18.592;2023-03-08T09:07:22;8.34;47.18
67249;SHT31;63247;54.300;18.592;2023-03-08T09:09:47;9.57;45.99
67249;SHT31;63247;54.300;18.592;2023-03-08T09:12:12;9.60;45.52
67249;SHT31;63247;54.300;18.592;2023-03-08T09:14:38;10.05;45.17
67249;SHT31;63247;54.300;18.592;2023-03-08T09:17:05;11.32;44.28
67249;SHT31;63247;54.300;18.592;2023-03-08T09:19:31;9.97;43.42
67249;SHT31;63247;54.300;18.592;2023-03-08T09:21:56;11.80;42.96
67249;SHT31;63247;54.300;18.592;2023-03-08T09:24:22;10.06;43.94
67249;SHT31;63247;54.300;18.592;2023-03-08T09:26:48;11.36;42.71
67249;SHT31;63247;54.300;18.592;2023-03-08T09:29:13;10.57;41.69
67249;SHT31;63247;54.300;18.592;2023-03-08T09:31:39;10.69;41.28
67249;SHT31;63247;54.300;18.592;2023-03-08T09:34:06;7.41;44.64
67249;SHT31;63247;54.300;18.592;2023-03-08T09:36:36;9.08;43.77
67249;SHT31;63247;54.300;18.592;2023-03-08T09:39:04;8.93;42.40
67249;SHT31;63247;54.300;18.592;2023-03-08T09:41:51;11.15;40.06
67249;SHT31;63247;54.300;18.592;2023-03-08T09:47:21;9.80;42.06
67249;SHT31;63247;54.300;18.592;2023-03-08T09:49:52;8.99;42.26
67249;SHT31;63247;54.300;18.592;2023-03-08T09:52:27;9.99;41.52
67249;SHT31;63247;54.300;18.592;2023-03-08T09:54:59;10.11;40.16
67249;SHT31;63247;54.300;18.592;2023-03-08T09:57:34;10.85;39.81
67249;SHT31;63247;54.300;18.592;2023-03-08T10:00:04;12.25;39.46
67249;SHT31;63247;54.300;18.592;2023-03-08T10:02:46;9.44;41.49
67249;SHT31;63247;54.300;18.592;2023-03-08T10:05:25;9.67;41.47
67249;SHT31;63247;54.300;18.592;2023-03-08T10:08:02;9.06;42.46
67249;SHT31;63247;54.300;18.592;2023-03-08T10:13:37;9.74;40.72
67249;SHT31;63247;54.300;18.592;2023-03-08T10:18:58;9.77;42.28
67249;SHT31;63247;54.300;18.592;2023-03-08T10:21:26;9.98;40.45
67249;SHT31;63247;54.300;18.592;2023-03-08T10:24:00;11.93;39.14
67249;SHT31;63247;54.300;18.592;2023-03-08T10:26:27;11.24;37.20
67249;SHT31;63247;54.300;18.592;2023-03-08T10:28:52;9.64;38.30
67249;SHT31;63247;54.300;18.592;2023-03-08T10:31:27;10.02;39.24
67249;SHT31;63247;54.300;18.592;2023-03-08T10:34:10;9.77;39.55
67249;SHT31;63247;54.300;18.592;2023-03-08T10:37:02;8.68;40.46
67249;SHT31;63247;54.300;18.592;2023-03-08T10:39:28;9.95;40.22
67249;SHT31;63247;54.300;18.592;2023-03-08T10:41:59;9.95;40.03
67249;SHT31;63247;54.300;18.592;2023-03-08T10:44:33;9.19;42.08
67249;SHT31;63247;54.300;18.592;2023-03-08T10:47:24;8.84;43.21
67249;SHT31;63247;54.300;18.592;2023-03-08T10:52:31;6.40;47.07
67249;SHT31;63247;54.300;18.592;2023-03-08T10:57:35;6.42;46.71
67249;SHT31;63247;54.300;18.592;2023-03-08T11:00:20;6.54;47.82
67249;SHT31;63247;54.300;18.592;2023-03-08T11:02:48;6.51;48.19
67249;SHT31;63247;54.300;18.592;2023-03-08T11:05:21;6.03;48.17
67249;SHT31;63247;54.300;18.592;2023-03-08T11:07:51;5.86;48.85
67249;SHT31;63247;54.300;18.592;2023-03-08T11:10:19;5.56;49.41
67249;SHT31;63247;54.300;18.592;2023-03-08T11:16:13;5.59;49.67
67249;SHT31;63247;54.300;18.592;2023-03-08T11:19:25;5.58;50.58
67249;SHT31;63247;54.300;18.592;2023-03-08T11:32:49;5.13;50.30
67249;SHT31;63247;54.300;18.592;2023-03-08T11:38:21;4.55;50.36
67249;SHT31;63247;54.300;18.592;2023-03-08T11:49:45;5.04;50.81
67249;SHT31;63247;54.300;18.592;2023-03-08T11:55:02;3.93;53.85
67249;SHT31;63247;54.300;18.592;2023-03-08T11:57:35;3.62;54.40
67249;SHT31;63247;54.300;18.592;2023-03-08T12:00:10;3.08;55.28
67249;SHT31;63247;54.300;18.592;2023-03-08T12:02:41;3.31;56.32
67249;SHT31;63247;54.300;18.592;2023-03-08T12:05:27;2.87;56.68
67249;SHT31;63247;54.300;18.592;2023-03-08T12:08:12;2.85;57.41
67249;SHT31;63247;54.300;18.592;2023-03-08T12:11:06;2.88;56.89
67249;SHT31;63247;54.300;18.592;2023-03-08T12:13:35;2.83;57.15
67249;SHT31;63247;54.300;18.592;2023-03-08T12:21:06;3.07;56.96
67249;SHT31;63247;54.300;18.592;2023-03-08T12:26:37;2.84;56.58
67249;SHT31;63247;54.300;18.592;2023-03-08T12:29:13;3.19;56.68
67249;SHT31;63247;54.300;18.592;2023-03-08T12:31:43;2.88;56.55
67249;SHT31;63247;54.300;18.592;2023-03-08T12:36:49;3.08;57.55
67249;SHT31;63247;54.300;18.592;2023-03-08T12:39:29;3.43;57.10
67249;SHT31;63247;54.300;18.592;2023-03-08T12:42:01;3.76;54.49
67249;SHT31;63247;54.300;18.592;2023-03-08T12:44:29;3.81;54.47
67249;SHT31;63247;54.300;18.592;2023-03-08T12:46:58;3.84;54.72
67249;SHT31;63247;54.300;18.592;2023-03-08T12:49:31;3.93;53.61
67249;SHT31;63247;54.300;18.592;2023-03-08T12:52:04;4.27;54.93
67249;SHT31;63247;54.300;18.592;2023-03-08T12:54:33;4.42;53.76
67249;SHT31;63247;54.300;18.592;2023-03-08T12:57:01;4.14;53.89
67249;SHT31;63247;54.300;18.592;2023-03-08T12:59:36;4.21;54.13
67249;SHT31;63247;54.300;18.592;2023-03-08T13:02:24;4.22;53.12
67249;SHT31;63247;54.300;18.592;2023-03-08T13:05:01;4.46;53.36
67249;SHT31;63247;54.300;18.592;2023-03-08T13:07:33;4.34;52.06
67249;SHT31;63247;54.300;18.592;2023-03-08T13:10:23;4.30;52.85
67249;SHT31;63247;54.300;18.592;2023-03-08T13:13:12;3.90;52.23
67249;SHT31;63247;54.300;18.592;2023-03-08T13:15:39;4.00;52.14
67249;SHT31;63247;54.300;18.592;2023-03-08T13:23:40;4.51;53.23
67249;SHT31;63247;54.300;18.592;2023-03-08T13:28:51;3.67;53.78
67249;SHT31;63247;54.300;18.592;2023-03-08T13:31:21;3.52;54.70
67249;SHT31;63247;54.300;18.592;2023-03-08T13:33:52;4.00;54.55
67249;SHT31;63247;54.300;18.592;2023-03-08T13:36:28;4.38;53.67
67249;SHT31;63247;54.300;18.592;2023-03-08T13:39:06;4.32;55.01
67249;SHT31;63247;54.300;18.592;2023-03-08T13:41:36;4.14;54.58
67249;SHT31;63247;54.300;18.592;2023-03-08T13:44:07;4.11;54.65
67249;SHT31;63247;54.300;18.592;2023-03-08T13:46:37;3.80;54.42
67249;SHT31;63247;54.300;18.592;2023-03-08T13:49:16;3.43;54.63
67249;SHT31;63247;54.300;18.592;2023-03-08T13:51:43;2.91;55.66
67249;SHT31;63247;54.300;18.592;2023-03-08T13:54:13;2.88;55.50
67249;SHT31;63247;54.300;18.592;2023-03-08T13:56:40;2.95;55.78
67249;SHT31;63247;54.300;18.592;2023-03-08T13:59:06;2.81;54.51
67249;SHT31;63247;54.300;18.592;2023-03-08T14:01:45;2.88;55.09
67249;SHT31;63247;54.300;18.592;2023-03-08T14:04:16;2.94;55.31
67249;SHT31;63247;54.300;18.592;2023-03-08T14:06:57;2.90;55.11
67249;SHT31;63247;54.300;18.592;2023-03-08T14:09:23;2.87;55.15
67249;SHT31;63247;54.300;18.592;2023-03-08T14:12:04;3.03;54.77
67249;SHT31;63247;54.300;18.592;2023-03-08T14:14:33;2.87;55.52
67249;SHT31;63247;54.300;18.592;2023-03-08T14:16:59;2.98;55.41
67249;SHT31;63247;54.300;18.592;2023-03-08T14:19:31;3.03;55.16
67249;SHT31;63247;54.300;18.592;2023-03-08T14:22:00;3.08;54.87
67249;SHT31;63247;54.300;18.592;2023-03-08T14:24:28;2.94;55.30
67249;SHT31;63247;54.300;18.592;2023-03-08T14:27:00;2.91;55.69
67249;SHT31;63247;54.300;18.592;2023-03-08T14:29:30;2.79;55.55
67249;SHT31;63247;54.300;18.592;2023-03-08T14:34:36;2.63;53.32
67249;SHT31;63247;54.300;18.592;2023-03-08T14:39:49;2.53;53.51
67249;SHT31;63247;54.300;18.592;2023-03-08T14:45:04;2.73;56.47
67249;SHT31;63247;54.300;18.592;2023-03-08T14:47:32;2.49;57.63
67249;SHT31;63247;54.300;18.592;2023-03-08T14:52:34;2.61;53.32
67249;SHT31;63247;54.300;18.592;2023-03-08T14:55:01;2.47;52.41
67249;SHT31;63247;54.300;18.592;2023-03-08T14:57:28;2.45;52.53
67249;SHT31;63247;54.300;18.592;2023-03-08T15:00:06;2.30;53.21
67249;SHT31;63247;54.300;18.592;2023-03-08T15:02:38;2.15;53.41
67249;SHT31;63247;54.300;18.592;2023-03-08T15:05:04;2.22;53.61
67249;SHT31;63247;54.300;18.592;2023-03-08T15:07:33;2.21;54.89
67249;SHT31;63247;54.300;18.592;2023-03-08T15:10:02;2.07;56.10
67249;SHT31;63247;54.300;18.592;2023-03-08T15:12:28;1.97;56.27
67249;SHT31;63247;54.300;18.592;2023-03-08T15:14:53;1.85;56.77
67249;SHT31;63247;54.300;18.592;2023-03-08T15:17:18;1.71;57.58
67249;SHT31;63247;54.300;18.592;2023-03-08T15:19:47;1.67;58.01
67249;SHT31;63247;54.300;18.592;2023-03-08T15:22:13;1.66;58.03
67249;SHT31;63247;54.300;18.592;2023-03-08T15:24:40;1.74;57.78
67249;SHT31;63247;54.300;18.592;2023-03-08T15:27:06;1.74;58.06
67249;SHT31;63247;54.300;18.592;2023-03-08T15:29:33;1.63;58.12
67249;SHT31;63247;54.300;18.592;2023-03-08T15:32:00;1.61;58.69
67249;SHT31;63247;54.300;18.592;2023-03-08T15:34:26;1.60;58.29
67249;SHT31;63247;54.300;18.592;2023-03-08T15:36:52;1.51;58.14
67249;SHT31;63247;54.300;18.592;2023-03-08T15:39:18;1.38;58.71
67249;SHT31;63247;54.300;18.592;2023-03-08T15:41:45;1.33;59.03
67249;SHT31;63247;54.300;18.592;2023-03-08T15:44:11;1.20;59.46
67249;SHT31;63247;54.300;18.592;2023-03-08T15:46:37;1.18;59.63
67249;SHT31;63247;54.300;18.592;2023-03-08T15:49:03;1.22;59.99
67249;SHT31;63247;54.300;18.592;2023-03-08T15:51:30;1.13;60.05
67249;SHT31;63247;54.300;18.592;2023-03-08T15:53:56;1.09;60.19
67249;SHT31;63247;54.300;18.592;2023-03-08T15:56:21;1.03;60.39
67249;SHT31;63247;54.300;18.592;2023-03-08T15:58:50;0.96;60.71
67249;SHT31;63247;54.300;18.592;2023-03-08T16:01:16;0.91;61.14
67249;SHT31;63247;54.300;18.592;2023-03-08T16:03:42;0.80;61.34
67249;SHT31;63247;54.300;18.592;2023-03-08T16:06:08;0.77;61.67
67249;SHT31;63247;54.300;18.592;2023-03-08T16:08:35;0.70;62.17
67249;SHT31;63247;54.300;18.592;2023-03-08T16:11:00;0.58;62.97
67249;SHT31;63247;54.300;18.592;2023-03-08T16:13:28;0.53;63.35
67249;SHT31;63247;54.300;18.592;2023-03-08T16:15:57;0.46;63.98
67249;SHT31;63247;54.300;18.592;2023-03-08T16:18:23;0.44;64.31
67249;SHT31;63247;54.300;18.592;2023-03-08T16:20:48;0.36;64.55
67249;SHT31;63247;54.300;18.592;2023-03-08T16:23:14;0.34;64.92
67249;SHT31;63247;54.300;18.592;2023-03-08T16:25:39;0.29;65.15
67249;SHT31;63247;54.300;18.592;2023-03-08T16:28:08;0.23;65.66
67249;SHT31;63247;54.300;18.592;2023-03-08T16:30:34;0.19;66.24
67249;SHT31;63247;54.300;18.592;2023-03-08T16:32:59;0.20;66.18
67249;SHT31;63247;54.300;18.592;2023-03-08T16:35:26;0.23;67.14
67249;SHT31;63247;54.300;18.592;2023-03-08T16:37:52;0.29;67.01
67249;SHT31;63247;54.300;18.592;2023-03-08T16:40:18;0.30;67.54
67249;SHT31;63247;54.300;18.592;2023-03-08T16:42:43;0.47;68.00
67249;SHT31;63247;54.300;18.592;2023-03-08T16:45:09;0.16;80.41
67249;SHT31;63247;54.300;18.592;2023-03-08T16:47:35;-0.11;86.30